sensor_id;sensor_type;location;lat;lon;timestamp;P1;durP1;ratioP1;P2;durP2;ratioP2
67804;SDS011;54603;45.638;11.714;2022-09-09T00:04:03;2.10;;;1.70;;
67804;SDS011;54603;45.638;11.714;2022-09-09T00:06:59;2.80;;;1.80;;
67804;SDS011;54603;45.638;11.714;2022-09-09T00:09:47;3.70;;;1.60;;
67804;SDS011;54603;45.638;11.714;2022-09-09T00:15:26;2.10;;;1.90;;
67804;SDS011;54603;45.638;11.714;2022-09-09T00:18:24;2.00;;;1.80;;
67804;SDS011;54603;45.638;11.714;2022-09-09T00:23:29;2.80;;;2.20;;
67804;SDS011;54603;45.638;11.714;2022-09-09T00:26:03;4.30;;;1.90;;
67804;SDS011;54603;45.638;11.714;2022-09-09T00:28:39;2.20;;;1.80;;
67804;SDS011;54603;45.638;11.714;2022-09-09T00:31:28;3.30;;;2.00;;
67804;SDS011;54603;45.638;11.714;2022-09-09T00:34:09;1.80;;;1.60;;
67804;SDS011;54603;45.638;11.714;2022-09-09T00:36:39;2.80;;;1.70;;
67804;SDS011;54603;45.638;11.714;2022-09-09T00:39:53;1.70;;;1.60;;
67804;SDS011;54603;45.638;11.714;2022-09-09T00:42:24;3.10;;;1.60;;
67804;SDS011;54603;45.638;11.714;2022-09-09T00:44:56;2.30;;;1.80;;
67804;SDS011;54603;45.638;11.714;2022-09-09T00:47:45;2.00;;;1.80;;
67804;SDS011;54603;45.638;11.714;2022-09-09T00:58:42;1.90;;;1.60;;
67804;SDS011;54603;45.638;11.714;2022-09-09T01:01:28;3.70;;;2.10;;
67804;SDS011;54603;45.638;11.714;2022-09-09T01:03:54;6.10;;;1.80;;
67804;SDS011;54603;45.638;11.714;2022-09-09T01:06:31;3.50;;;1.90;;
67804;SDS011;54603;45.638;11.714;2022-09-09T01:09:26;3.90;;;1.80;;
67804;SDS011;54603;45.638;11.714;2022-09-09T01:17:31;3.20;;;1.90;;
67804;SDS011;54603;45.638;11.714;2022-09-09T01:20:04;3.80;;;1.90;;
67804;SDS011;54603;45.638;11.714;2022-09-09T01:22:35;3.90;;;1.90;;
67804;SDS011;54603;45.638;11.714;2022-09-09T01:25:25;2.30;;;1.90;;
67804;SDS011;54603;45.638;11.714;2022-09-09T01:28:03;4.20;;;1.90;;
67804;SDS011;54603;45.638;11.714;2022-09-09T01:30:38;4.60;;;2.00;;
67804;SDS011;54603;45.638;11.714;2022-09-09T01:33:04;2.60;;;1.70;;
67804;SDS011;54603;45.638;11.714;2022-09-09T01:35:46;2.40;;;1.70;;
67804;SDS011;54603;45.638;11.714;2022-09-09T01:38:23;5.40;;;1.90;;
67804;SDS011;54603;45.638;11.714;2022-09-09T01:40:50;2.40;;;1.70;;
67804;SDS011;54603;45.638;11.714;2022-09-09T01:43:25;3.40;;;1.80;;
67804;SDS011;54603;45.638;11.714;2022-09-09T01:45:52;2.70;;;2.00;;
67804;SDS011;54603;45.638;11.714;2022-09-09T01:48:33;3.10;;;1.50;;
67804;SDS011;54603;45.638;11.714;2022-09-09T01:51:18;3.30;;;2.10;;
67804;SDS011;54603;45.638;11.714;2022-09-09T01:53:44;2.70;;;1.80;;
67804;SDS011;54603;45.638;11.714;2022-09-09T02:01:54;3.40;;;1.90;;
67804;SDS011;54603;45.638;11.714;2022-09-09T02:08:08;2.00;;;1.90;;
67804;SDS011;54603;45.638;11.714;2022-09-09T02:13:13;3.00;;;2.00;;
67804;SDS011;54603;45.638;11.714;2022-09-09T02:18:21;5.80;;;2.20;;
67804;SDS011;54603;45.638;11.714;2022-09-09T02:20:56;4.40;;;2.10;;
67804;SDS011;54603;45.638;11.714;2022-09-09T02:23:31;3.40;;;1.80;;
67804;SDS011;54603;45.638;11.714;2022-09-09T02:25:57;3.80;;;2.00;;
67804;SDS011;54603;45.638;11.714;2022-09-09T02:28:24;3.70;;;1.80;;
67804;SDS011;54603;45.638;11.714;2022-09-09T02:30:52;4.10;;;2.20;;
67804;SDS011;54603;45.638;11.714;2022-09-09T02:33:30;6.10;;;2.20;;
67804;SDS011;54603;45.638;11.714;2022-09-09T02:36:17;3.30;;;1.90;;
67804;SDS011;54603;45.638;11.714;2022-09-09T02:38:48;5.20;;;1.90;;
67804;SDS011;54603;45.638;11.714;2022-09-09T02:41:22;4.30;;;2.00;;
67804;SDS011;54603;45.638;11.714;2022-09-09T02:43:59;4.80;;;2.10;;
67804;SDS011;54603;45.638;11.714;2022-09-09T02:46:43;3.10;;;2.20;;
67804;SDS011;54603;45.638;11.714;2022-09-09T02:49:32;4.90;;;2.60;;
67804;SDS011;54603;45.638;11.714;2022-09-09T02:52:44;4.60;;;2.10;;
67804;SDS011;54603;45.638;11.714;2022-09-09T02:58:34;3.20;;;2.00;;
67804;SDS011;54603;45.638;11.714;2022-09-09T03:01:00;2.70;;;1.90;;
67804;SDS011;54603;45.638;11.714;2022-09-09T03:03:32;4.30;;;2.40;;
67804;SDS011;54603;45.638;11.714;2022-09-09T03:05:58;10.00;;;2.10;;
67804;SDS011;54603;45.638;11.714;2022-09-09T03:08:32;3.20;;;2.10;;
67804;SDS011;54603;45.638;11.714;2022-09-09T03:11:18;3.90;;;2.20;;
67804;SDS011;54603;45.638;11.714;2022-09-09T03:13:43;2.50;;;2.00;;
67804;SDS011;54603;45.638;11.714;2022-09-09T03:16:09;4.30;;;2.30;;
67804;SDS011;54603;45.638;11.714;2022-09-09T03:18:34;2.20;;;2.00;;
67804;SDS011;54603;45.638;11.714;2022-09-09T03:21:00;4.40;;;2.20;;
67804;SDS011;54603;45.638;11.714;2022-09-09T03:23:26;2.30;;;1.80;;
67804;SDS011;54603;45.638;11.714;2022-09-09T03:25:52;3.20;;;2.20;;
67804;SDS011;54603;45.638;11.714;2022-09-09T03:28:37;3.60;;;2.00;;
67804;SDS011;54603;45.638;11.714;2022-09-09T03:31:03;3.70;;;2.00;;
67804;SDS011;54603;45.638;11.714;2022-09-09T03:33:30;3.40;;;2.00;;
67804;SDS011;54603;45.638;11.714;2022-09-09T03:35:56;2.60;;;1.90;;
67804;SDS011;54603;45.638;11.714;2022-09-09T03:38:22;3.70;;;2.00;;
67804;SDS011;54603;45.638;11.714;2022-09-09T03:40:51;3.20;;;2.10;;
67804;SDS011;54603;45.638;11.714;2022-09-09T03:45:49;3.20;;;2.10;;
67804;SDS011;54603;45.638;11.714;2022-09-09T03:48:15;2.20;;;1.80;;
67804;SDS011;54603;45.638;11.714;2022-09-09T03:50:48;3.80;;;1.90;;
67804;SDS011;54603;45.638;11.714;2022-09-09T03:53:18;2.60;;;1.90;;
67804;SDS011;54603;45.638;11.714;2022-09-09T03:55:54;4.00;;;2.20;;
67804;SDS011;54603;45.638;11.714;2022-09-09T03:58:33;3.00;;;2.10;;
67804;SDS011;54603;45.638;11.714;2022-09-09T04:01:01;2.40;;;1.90;;
67804;SDS011;54603;45.638;11.714;2022-09-09T04:03:45;5.50;;;2.00;;
67804;SDS011;54603;45.638;11.714;2022-09-09T04:06:11;2.90;;;1.80;;
67804;SDS011;54603;45.638;11.714;2022-09-09T04:08:38;2.90;;;2.10;;
67804;SDS011;54603;45.638;11.714;2022-09-09T04:11:17;3.00;;;1.90;;
67804;SDS011;54603;45.638;11.714;2022-09-09T04:13:43;2.30;;;2.00;;
67804;SDS011;54603;45.638;11.714;2022-09-09T04:16:10;3.10;;;2.20;;
67804;SDS011;54603;45.638;11.714;2022-09-09T04:19:17;4.70;;;2.20;;
67804;SDS011;54603;45.638;11.714;2022-09-09T04:22:02;3.80;;;2.10;;
67804;SDS011;54603;45.638;11.714;2022-09-09T04:24:29;3.40;;;2.20;;
67804;SDS011;54603;45.638;11.714;2022-09-09T04:27:56;4.80;;;1.90;;
67804;SDS011;54603;45.638;11.714;2022-09-09T04:30:22;3.70;;;2.10;;
67804;SDS011;54603;45.638;11.714;2022-09-09T04:33:14;3.50;;;2.10;;
67804;SDS011;54603;45.638;11.714;2022-09-09T04:36:07;2.90;;;2.30;;
67804;SDS011;54603;45.638;11.714;2022-09-09T04:38:45;3.80;;;2.20;;
67804;SDS011;54603;45.638;11.714;2022-09-09T04:41:15;3.20;;;2.20;;
67804;SDS011;54603;45.638;11.714;2022-09-09T04:43:41;4.20;;;2.20;;
67804;SDS011;54603;45.638;11.714;2022-09-09T04:46:07;3.30;;;2.00;;
67804;SDS011;54603;45.638;11.714;2022-09-09T04:48:33;3.60;;;2.10;;
67804;SDS011;54603;45.638;11.714;2022-09-09T04:51:00;4.10;;;2.00;;
67804;SDS011;54603;45.638;11.714;2022-09-09T04:53:27;4.60;;;2.20;;
67804;SDS011;54603;45.638;11.714;2022-09-09T04:56:03;2.90;;;2.10;;
67804;SDS011;54603;45.638;11.714;2022-09-09T04:58:38;3.90;;;2.00;;
67804;SDS011;54603;45.638;11.714;2022-09-09T05:01:13;3.20;;;2.10;;
67804;SDS011;54603;45.638;11.714;2022-09-09T05:04:04;4.80;;;2.30;;
67804;SDS011;54603;45.638;11.714;2022-09-09T05:06:30;3.10;;;2.20;;
67804;SDS011;54603;45.638;11.714;2022-09-09T05:08:56;2.00;;;1.80;;
67804;SDS011;54603;45.638;11.714;2022-09-09T05:11:24;4.10;;;2.20;;
67804;SDS011;54603;45.638;11.714;2022-09-09T05:13:53;2.60;;;2.10;;
67804;SDS011;54603;45.638;11.714;2022-09-09T05:16:23;3.80;;;2.20;;
67804;SDS011;54603;45.638;11.714;2022-09-09T05:18:49;2.90;;;2.00;;
67804;SDS011;54603;45.638;11.714;2022-09-09T05:21:19;4.10;;;2.20;;
67804;SDS011;54603;45.638;11.714;2022-09-09T05:23:56;4.40;;;2.20;;
67804;SDS011;54603;45.638;11.714;2022-09-09T05:27:01;3.30;;;2.20;;
67804;SDS011;54603;45.638;11.714;2022-09-09T05:29:28;2.80;;;2.00;;
67804;SDS011;54603;45.638;11.714;2022-09-09T05:31:55;4.00;;;2.30;;
67804;SDS011;54603;45.638;11.714;2022-09-09T05:34:20;3.00;;;2.10;;
67804;SDS011;54603;45.638;11.714;2022-09-09T05:37:06;4.60;;;2.20;;
67804;SDS011;54603;45.638;11.714;2022-09-09T05:39:52;4.40;;;2.30;;
67804;SDS011;54603;45.638;11.714;2022-09-09T05:43:02;4.70;;;2.40;;
67804;SDS011;54603;45.638;11.714;2022-09-09T05:45:29;3.50;;;2.30;;
67804;SDS011;54603;45.638;11.714;2022-09-09T05:47:58;3.20;;;2.30;;
67804;SDS011;54603;45.638;11.714;2022-09-09T05:50:52;5.80;;;2.30;;
67804;SDS011;54603;45.638;11.714;2022-09-09T05:53:38;2.90;;;2.10;;
67804;SDS011;54603;45.638;11.714;2022-09-09T05:56:05;2.30;;;2.10;;
67804;SDS011;54603;45.638;11.714;2022-09-09T05:58:56;3.80;;;2.20;;
67804;SDS011;54603;45.638;11.714;2022-09-09T06:01:26;4.50;;;2.30;;
67804;SDS011;54603;45.638;11.714;2022-09-09T06:03:54;2.30;;;2.00;;
67804;SDS011;54603;45.638;11.714;2022-09-09T06:06:24;4.70;;;2.50;;
67804;SDS011;54603;45.638;11.714;2022-09-09T06:08:56;3.10;;;2.30;;
67804;SDS011;54603;45.638;11.714;2022-09-09T06:11:26;2.90;;;2.20;;
67804;SDS011;54603;45.638;11.714;2022-09-09T06:14:13;4.50;;;2.40;;
67804;SDS011;54603;45.638;11.714;2022-09-09T06:16:39;2.20;;;2.00;;
67804;SDS011;54603;45.638;11.714;2022-09-09T06:19:09;5.10;;;2.50;;
67804;SDS011;54603;45.638;11.714;2022-09-09T06:21:40;3.50;;;2.40;;
67804;SDS011;54603;45.638;11.714;2022-09-09T06:24:07;3.70;;;2.10;;
67804;SDS011;54603;45.638;11.714;2022-09-09T06:26:33;3.00;;;2.30;;
67804;SDS011;54603;45.638;11.714;2022-09-09T06:29:01;2.80;;;2.20;;
67804;SDS011;54603;45.638;11.714;2022-09-09T06:31:29;3.40;;;2.30;;
67804;SDS011;54603;45.638;11.714;2022-09-09T06:33:56;4.60;;;2.10;;
67804;SDS011;54603;45.638;11.714;2022-09-09T06:36:28;2.90;;;2.20;;
67804;SDS011;54603;45.638;11.714;2022-09-09T06:38:56;4.10;;;2.20;;
67804;SDS011;54603;45.638;11.714;2022-09-09T06:41:22;3.40;;;2.20;;
67804;SDS011;54603;45.638;11.714;2022-09-09T06:43:49;4.20;;;2.30;;
67804;SDS011;54603;45.638;11.714;2022-09-09T06:46:24;3.80;;;2.70;;
67804;SDS011;54603;45.638;11.714;2022-09-09T06:48:59;3.00;;;2.40;;
67804;SDS011;54603;45.638;11.714;2022-09-09T06:51:33;5.60;;;2.70;;
67804;SDS011;54603;45.638;11.714;2022-09-09T06:54:04;5.90;;;2.60;;
67804;SDS011;54603;45.638;11.714;2022-09-09T06:56:36;4.90;;;2.70;;
67804;SDS011;54603;45.638;11.714;2022-09-09T06:59:07;5.10;;;2.30;;
67804;SDS011;54603;45.638;11.714;2022-09-09T07:02:13;4.60;;;2.40;;
67804;SDS011;54603;45.638;11.714;2022-09-09T07:04:43;3.60;;;2.50;;
67804;SDS011;54603;45.638;11.714;2022-09-09T07:07:09;4.40;;;2.30;;
67804;SDS011;54603;45.638;11.714;2022-09-09T07:09:37;3.80;;;2.50;;
67804;SDS011;54603;45.638;11.714;2022-09-09T07:12:03;8.20;;;2.50;;
67804;SDS011;54603;45.638;11.714;2022-09-09T07:14:31;4.40;;;2.20;;
67804;SDS011;54603;45.638;11.714;2022-09-09T07:16:59;2.90;;;2.30;;
67804;SDS011;54603;45.638;11.714;2022-09-09T07:19:29;7.60;;;2.50;;
67804;SDS011;54603;45.638;11.714;2022-09-09T07:21:54;5.70;;;2.90;;
67804;SDS011;54603;45.638;11.714;2022-09-09T07:24:20;9.40;;;3.30;;
67804;SDS011;54603;45.638;11.714;2022-09-09T07:26:46;5.60;;;3.20;;
67804;SDS011;54603;45.638;11.714;2022-09-09T07:29:11;5.50;;;3.40;;
67804;SDS011;54603;45.638;11.714;2022-09-09T07:31:40;8.90;;;3.70;;
67804;SDS011;54603;45.638;11.714;2022-09-09T07:34:06;5.30;;;3.10;;
67804;SDS011;54603;45.638;11.714;2022-09-09T07:36:33;8.10;;;3.60;;
67804;SDS011;54603;45.638;11.714;2022-09-09T07:39:05;4.20;;;3.50;;
67804;SDS011;54603;45.638;11.714;2022-09-09T07:41:39;7.10;;;2.90;;
67804;SDS011;54603;45.638;11.714;2022-09-09T07:44:07;7.20;;;4.00;;
67804;SDS011;54603;45.638;11.714;2022-09-09T07:46:34;4.90;;;2.80;;
67804;SDS011;54603;45.638;11.714;2022-09-09T07:49:00;5.50;;;2.70;;
67804;SDS011;54603;45.638;11.714;2022-09-09T07:51:28;5.40;;;3.00;;
67804;SDS011;54603;45.638;11.714;2022-09-09T07:53:58;6.10;;;2.80;;
67804;SDS011;54603;45.638;11.714;2022-09-09T07:56:25;9.80;;;2.90;;
67804;SDS011;54603;45.638;11.714;2022-09-09T07:58:52;8.20;;;3.00;;
67804;SDS011;54603;45.638;11.714;2022-09-09T08:03:46;6.80;;;3.10;;
67804;SDS011;54603;45.638;11.714;2022-09-09T08:06:17;5.40;;;3.10;;
67804;SDS011;54603;45.638;11.714;2022-09-09T08:08:43;5.80;;;3.40;;
67804;SDS011;54603;45.638;11.714;2022-09-09T08:11:18;5.50;;;2.70;;
67804;SDS011;54603;45.638;11.714;2022-09-09T08:13:44;7.00;;;3.10;;
67804;SDS011;54603;45.638;11.714;2022-09-09T08:18:39;5.80;;;3.10;;
67804;SDS011;54603;45.638;11.714;2022-09-09T08:21:07;8.40;;;4.30;;
67804;SDS011;54603;45.638;11.714;2022-09-09T08:23:37;4.70;;;2.90;;
67804;SDS011;54603;45.638;11.714;2022-09-09T08:26:07;7.20;;;3.00;;
67804;SDS011;54603;45.638;11.714;2022-09-09T08:28:39;9.10;;;3.00;;
67804;SDS011;54603;45.638;11.714;2022-09-09T08:31:10;4.70;;;3.10;;
67804;SDS011;54603;45.638;11.714;2022-09-09T08:33:42;7.00;;;3.20;;
67804;SDS011;54603;45.638;11.714;2022-09-09T08:36:12;7.90;;;3.00;;
67804;SDS011;54603;45.638;11.714;2022-09-09T08:38:40;6.30;;;3.40;;
67804;SDS011;54603;45.638;11.714;2022-09-09T08:41:11;7.20;;;3.20;;
67804;SDS011;54603;45.638;11.714;2022-09-09T08:43:46;10.70;;;3.10;;
67804;SDS011;54603;45.638;11.714;2022-09-09T08:46:19;7.20;;;3.20;;
67804;SDS011;54603;45.638;11.714;2022-09-09T08:48:52;7.60;;;3.10;;
67804;SDS011;54603;45.638;11.714;2022-09-09T08:51:23;3.70;;;2.90;;
67804;SDS011;54603;45.638;11.714;2022-09-09T08:53:51;4.70;;;2.70;;
67804;SDS011;54603;45.638;11.714;2022-09-09T08:56:21;6.00;;;2.80;;
67804;SDS011;54603;45.638;11.714;2022-09-09T08:58:54;4.50;;;2.80;;
67804;SDS011;54603;45.638;11.714;2022-09-09T09:09:31;6.50;;;3.20;;
67804;SDS011;54603;45.638;11.714;2022-09-09T09:12:11;5.40;;;2.70;;
67804;SDS011;54603;45.638;11.714;2022-09-09T09:14:43;4.20;;;3.30;;
67804;SDS011;54603;45.638;11.714;2022-09-09T09:19:41;7.10;;;3.20;;
67804;SDS011;54603;45.638;11.714;2022-09-09T09:22:16;4.70;;;2.90;;
67804;SDS011;54603;45.638;11.714;2022-09-09T09:27:34;6.20;;;2.90;;
67804;SDS011;54603;45.638;11.714;2022-09-09T09:30:04;8.00;;;3.30;;
67804;SDS011;54603;45.638;11.714;2022-09-09T09:32:53;4.90;;;3.10;;
67804;SDS011;54603;45.638;11.714;2022-09-09T09:35:30;5.20;;;3.00;;
67804;SDS011;54603;45.638;11.714;2022-09-09T09:37:57;7.80;;;3.20;;
67804;SDS011;54603;45.638;11.714;2022-09-09T09:40:23;5.60;;;3.10;;
67804;SDS011;54603;45.638;11.714;2022-09-09T09:48:11;4.40;;;2.70;;
67804;SDS011;54603;45.638;11.714;2022-09-09T09:50:50;4.40;;;2.80;;
67804;SDS011;54603;45.638;11.714;2022-09-09T09:53:25;6.30;;;3.00;;
67804;SDS011;54603;45.638;11.714;2022-09-09T09:55:59;4.70;;;3.00;;
67804;SDS011;54603;45.638;11.714;2022-09-09T09:58:30;4.20;;;2.80;;
67804;SDS011;54603;45.638;11.714;2022-09-09T10:01:00;5.40;;;2.20;;
67804;SDS011;54603;45.638;11.714;2022-09-09T10:03:27;3.40;;;2.10;;
67804;SDS011;54603;45.638;11.714;2022-09-09T10:05:54;3.40;;;2.20;;
67804;SDS011;54603;45.638;11.714;2022-09-09T10:08:22;4.00;;;2.40;;
67804;SDS011;54603;45.638;11.714;2022-09-09T10:19:26;3.40;;;2.30;;
67804;SDS011;54603;45.638;11.714;2022-09-09T10:22:01;7.30;;;2.60;;
67804;SDS011;54603;45.638;11.714;2022-09-09T10:32:40;6.00;;;2.70;;
67804;SDS011;54603;45.638;11.714;2022-09-09T10:35:29;5.30;;;2.50;;
67804;SDS011;54603;45.638;11.714;2022-09-09T10:46:03;4.90;;;2.30;;
67804;SDS011;54603;45.638;11.714;2022-09-09T10:51:23;3.90;;;2.00;;
67804;SDS011;54603;45.638;11.714;2022-09-09T10:54:23;3.40;;;2.00;;
67804;SDS011;54603;45.638;11.714;2022-09-09T10:56:58;3.60;;;2.20;;
67804;SDS011;54603;45.638;11.714;2022-09-09T10:59:30;4.40;;;2.10;;
67804;SDS011;54603;45.638;11.714;2022-09-09T11:02:05;3.60;;;2.00;;
67804;SDS011;54603;45.638;11.714;2022-09-09T11:04:45;3.60;;;2.10;;
67804;SDS011;54603;45.638;11.714;2022-09-09T11:07:24;6.90;;;1.90;;
67804;SDS011;54603;45.638;11.714;2022-09-09T11:09:57;3.20;;;1.90;;
67804;SDS011;54603;45.638;11.714;2022-09-09T11:12:26;3.60;;;2.00;;
67804;SDS011;54603;45.638;11.714;2022-09-09T11:14:57;2.40;;;1.90;;
67804;SDS011;54603;45.638;11.714;2022-09-09T11:17:40;2.50;;;1.80;;
67804;SDS011;54603;45.638;11.714;2022-09-09T11:20:13;5.40;;;2.00;;
67804;SDS011;54603;45.638;11.714;2022-09-09T11:22:43;3.90;;;2.10;;
67804;SDS011;54603;45.638;11.714;2022-09-09T11:25:23;5.40;;;2.00;;
67804;SDS011;54603;45.638;11.714;2022-09-09T11:44:37;4.60;;;2.20;;
67804;SDS011;54603;45.638;11.714;2022-09-09T11:47:15;4.10;;;2.00;;
67804;SDS011;54603;45.638;11.714;2022-09-09T11:49:44;3.50;;;2.00;;
67804;SDS011;54603;45.638;11.714;2022-09-09T11:55:10;5.50;;;2.10;;
67804;SDS011;54603;45.638;11.714;2022-09-09T11:57:45;3.30;;;2.20;;
67804;SDS011;54603;45.638;11.714;2022-09-09T12:03:06;3.90;;;2.20;;
67804;SDS011;54603;45.638;11.714;2022-09-09T12:05:51;7.00;;;2.30;;
67804;SDS011;54603;45.638;11.714;2022-09-09T12:08:19;5.10;;;2.40;;
67804;SDS011;54603;45.638;11.714;2022-09-09T12:10:53;5.50;;;2.10;;
67804;SDS011;54603;45.638;11.714;2022-09-09T12:13:22;5.50;;;2.30;;
67804;SDS011;54603;45.638;11.714;2022-09-09T12:15:49;5.10;;;2.20;;
67804;SDS011;54603;45.638;11.714;2022-09-09T12:18:24;4.20;;;2.00;;
67804;SDS011;54603;45.638;11.714;2022-09-09T12:24:06;7.10;;;2.30;;
67804;SDS011;54603;45.638;11.714;2022-09-09T12:26:43;9.20;;;2.40;;
67804;SDS011;54603;45.638;11.714;2022-09-09T12:32:17;4.60;;;2.20;;
67804;SDS011;54603;45.638;11.714;2022-09-09T12:34:47;7.20;;;2.60;;
67804;SDS011;54603;45.638;11.714;2022-09-09T12:40:18;11.30;;;2.80;;
67804;SDS011;54603;45.638;11.714;2022-09-09T12:42:44;4.60;;;1.90;;
67804;SDS011;54603;45.638;11.714;2022-09-09T12:45:17;6.00;;;1.80;;
67804;SDS011;54603;45.638;11.714;2022-09-09T12:48:27;4.80;;;1.60;;
67804;SDS011;54603;45.638;11.714;2022-09-09T12:50:46;9.80;;;2.20;;
67804;SDS011;54603;45.638;11.714;2022-09-09T12:53:21;5.30;;;2.10;;
67804;SDS011;54603;45.638;11.714;2022-09-09T12:56:04;6.90;;;2.30;;
67804;SDS011;54603;45.638;11.714;2022-09-09T12:58:35;6.30;;;2.10;;
67804;SDS011;54603;45.638;11.714;2022-09-09T13:01:02;5.00;;;2.10;;
67804;SDS011;54603;45.638;11.714;2022-09-09T13:03:41;4.80;;;1.90;;
67804;SDS011;54603;45.638;11.714;2022-09-09T13:06:12;4.70;;;2.50;;
67804;SDS011;54603;45.638;11.714;2022-09-09T13:08:39;5.20;;;2.60;;
67804;SDS011;54603;45.638;11.714;2022-09-09T13:11:10;3.80;;;2.20;;
67804;SDS011;54603;45.638;11.714;2022-09-09T13:13:40;5.20;;;2.00;;
67804;SDS011;54603;45.638;11.714;2022-09-09T13:16:07;6.10;;;2.20;;
67804;SDS011;54603;45.638;11.714;2022-09-09T13:18:48;4.10;;;1.90;;
67804;SDS011;54603;45.638;11.714;2022-09-09T13:21:16;6.60;;;2.20;;
67804;SDS011;54603;45.638;11.714;2022-09-09T13:23:42;4.10;;;1.90;;
67804;SDS011;54603;45.638;11.714;2022-09-09T13:26:21;4.80;;;1.90;;
67804;SDS011;54603;45.638;11.714;2022-09-09T13:28:50;3.30;;;1.70;;
67804;SDS011;54603;45.638;11.714;2022-09-09T13:31:30;2.80;;;1.70;;
67804;SDS011;54603;45.638;11.714;2022-09-09T13:33:58;4.10;;;1.60;;
67804;SDS011;54603;45.638;11.714;2022-09-09T13:36:38;2.80;;;1.60;;
67804;SDS011;54603;45.638;11.714;2022-09-09T13:39:37;3.20;;;1.70;;
67804;SDS011;54603;45.638;11.714;2022-09-09T13:42:44;3.10;;;1.30;;
67804;SDS011;54603;45.638;11.714;2022-09-09T13:45:22;4.40;;;1.80;;
67804;SDS011;54603;45.638;11.714;2022-09-09T13:47:54;2.80;;;1.60;;
67804;SDS011;54603;45.638;11.714;2022-09-09T13:52:51;3.20;;;1.50;;
67804;SDS011;54603;45.638;11.714;2022-09-09T13:55:18;2.90;;;1.40;;
67804;SDS011;54603;45.638;11.714;2022-09-09T13:57:50;3.20;;;1.40;;
67804;SDS011;54603;45.638;11.714;2022-09-09T14:00:16;2.10;;;1.30;;
67804;SDS011;54603;45.638;11.714;2022-09-09T14:02:42;3.20;;;1.50;;
67804;SDS011;54603;45.638;11.714;2022-09-09T14:05:09;3.50;;;1.30;;
67804;SDS011;54603;45.638;11.714;2022-09-09T14:07:36;3.60;;;1.20;;
67804;SDS011;54603;45.638;11.714;2022-09-09T14:10:03;5.00;;;1.10;;
67804;SDS011;54603;45.638;11.714;2022-09-09T14:12:30;4.30;;;1.30;;
67804;SDS011;54603;45.638;11.714;2022-09-09T14:14:55;3.10;;;1.30;;
67804;SDS011;54603;45.638;11.714;2022-09-09T14:17:21;3.50;;;1.40;;
67804;SDS011;54603;45.638;11.714;2022-09-09T14:19:47;3.40;;;1.40;;
67804;SDS011;54603;45.638;11.714;2022-09-09T14:22:13;5.20;;;1.40;;
67804;SDS011;54603;45.638;11.714;2022-09-09T14:24:39;3.30;;;1.30;;
67804;SDS011;54603;45.638;11.714;2022-09-09T14:27:04;2.10;;;1.30;;
67804;SDS011;54603;45.638;11.714;2022-09-09T14:29:30;1.80;;;1.30;;
67804;SDS011;54603;45.638;11.714;2022-09-09T14:32:00;2.90;;;1.20;;
67804;SDS011;54603;45.638;11.714;2022-09-09T14:34:26;2.70;;;1.20;;
67804;SDS011;54603;45.638;11.714;2022-09-09T14:36:52;7.70;;;1.50;;
67804;SDS011;54603;45.638;11.714;2022-09-09T14:39:17;3.70;;;1.20;;
67804;SDS011;54603;45.638;11.714;2022-09-09T14:41:43;1.50;;;1.10;;
67804;SDS011;54603;45.638;11.714;2022-09-09T14:44:08;9.60;;;1.30;;
67804;SDS011;54603;45.638;11.714;2022-09-09T14:46:35;2.90;;;1.40;;
67804;SDS011;54603;45.638;11.714;2022-09-09T14:49:00;2.10;;;1.30;;
67804;SDS011;54603;45.638;11.714;2022-09-09T14:51:26;1.80;;;1.40;;
67804;SDS011;54603;45.638;11.714;2022-09-09T14:53:56;5.60;;;1.20;;
67804;SDS011;54603;45.638;11.714;2022-09-09T14:56:24;2.00;;;1.30;;
67804;SDS011;54603;45.638;11.714;2022-09-09T14:58:53;1.40;;;0.90;;
67804;SDS011;54603;45.638;11.714;2022-09-09T15:01:20;2.60;;;1.20;;
67804;SDS011;54603;45.638;11.714;2022-09-09T15:03:53;1.60;;;1.10;;
67804;SDS011;54603;45.638;11.714;2022-09-09T15:06:20;1.50;;;1.20;;
67804;SDS011;54603;45.638;11.714;2022-09-09T15:08:47;2.00;;;1.30;;
67804;SDS011;54603;45.638;11.714;2022-09-09T15:11:13;6.30;;;1.30;;
67804;SDS011;54603;45.638;11.714;2022-09-09T15:13:40;3.30;;;1.50;;
67804;SDS011;54603;45.638;11.714;2022-09-09T15:16:10;5.40;;;1.50;;
67804;SDS011;54603;45.638;11.714;2022-09-09T15:18:37;2.90;;;1.40;;
67804;SDS011;54603;45.638;11.714;2022-09-09T15:21:15;2.70;;;1.50;;
67804;SDS011;54603;45.638;11.714;2022-09-09T15:23:42;2.20;;;1.50;;
67804;SDS011;54603;45.638;11.714;2022-09-09T15:26:08;4.40;;;1.30;;
67804;SDS011;54603;45.638;11.714;2022-09-09T15:28:35;4.40;;;1.30;;
67804;SDS011;54603;45.638;11.714;2022-09-09T15:31:11;1.90;;;1.40;;
67804;SDS011;54603;45.638;11.714;2022-09-09T15:33:48;4.70;;;1.50;;
67804;SDS011;54603;45.638;11.714;2022-09-09T15:36:38;3.10;;;1.40;;
67804;SDS011;54603;45.638;11.714;2022-09-09T15:39:20;3.70;;;1.30;;
67804;SDS011;54603;45.638;11.714;2022-09-09T15:41:47;1.70;;;1.30;;
67804;SDS011;54603;45.638;11.714;2022-09-09T15:44:14;2.70;;;1.40;;
67804;SDS011;54603;45.638;11.714;2022-09-09T15:46:44;2.80;;;1.50;;
67804;SDS011;54603;45.638;11.714;2022-09-09T15:49:12;2.60;;;1.20;;
67804;SDS011;54603;45.638;11.714;2022-09-09T15:51:39;2.50;;;1.40;;
67804;SDS011;54603;45.638;11.714;2022-09-09T15:54:07;2.00;;;1.20;;
67804;SDS011;54603;45.638;11.714;2022-09-09T15:56:34;1.70;;;1.30;;
67804;SDS011;54603;45.638;11.714;2022-09-09T15:59:00;3.60;;;1.40;;
67804;SDS011;54603;45.638;11.714;2022-09-09T16:01:28;2.80;;;1.40;;
67804;SDS011;54603;45.638;11.714;2022-09-09T16:03:55;3.00;;;1.40;;
67804;SDS011;54603;45.638;11.714;2022-09-09T16:06:21;3.50;;;1.50;;
67804;SDS011;54603;45.638;11.714;2022-09-09T16:08:49;2.00;;;1.50;;
67804;SDS011;54603;45.638;11.714;2022-09-09T16:11:22;3.00;;;1.40;;
67804;SDS011;54603;45.638;11.714;2022-09-09T16:13:52;2.80;;;1.60;;
67804;SDS011;54603;45.638;11.714;2022-09-09T16:16:19;1.80;;;1.30;;
67804;SDS011;54603;45.638;11.714;2022-09-09T16:18:50;1.50;;;1.30;;
67804;SDS011;54603;45.638;11.714;2022-09-09T16:21:22;2.00;;;1.50;;
67804;SDS011;54603;45.638;11.714;2022-09-09T16:23:52;2.40;;;1.40;;
67804;SDS011;54603;45.638;11.714;2022-09-09T16:26:21;2.90;;;1.90;;
67804;SDS011;54603;45.638;11.714;2022-09-09T16:28:47;1.70;;;1.60;;
67804;SDS011;54603;45.638;11.714;2022-09-09T16:31:14;6.60;;;2.40;;
67804;SDS011;54603;45.638;11.714;2022-09-09T16:33:42;3.40;;;2.60;;
67804;SDS011;54603;45.638;11.714;2022-09-09T16:36:09;4.80;;;3.10;;
67804;SDS011;54603;45.638;11.714;2022-09-09T16:38:37;6.30;;;3.10;;
67804;SDS011;54603;45.638;11.714;2022-09-09T16:41:03;6.20;;;3.00;;
67804;SDS011;54603;45.638;11.714;2022-09-09T16:43:31;4.20;;;3.00;;
67804;SDS011;54603;45.638;11.714;2022-09-09T16:46:00;5.20;;;3.90;;
67804;SDS011;54603;45.638;11.714;2022-09-09T16:48:31;5.70;;;4.00;;
67804;SDS011;54603;45.638;11.714;2022-09-09T16:51:07;4.80;;;4.10;;
67804;SDS011;54603;45.638;11.714;2022-09-09T16:53:35;5.10;;;4.40;;
67804;SDS011;54603;45.638;11.714;2022-09-09T16:56:07;6.10;;;5.00;;
67804;SDS011;54603;45.638;11.714;2022-09-09T16:58:51;6.20;;;4.50;;
67804;SDS011;54603;45.638;11.714;2022-09-09T17:01:21;5.50;;;4.80;;
67804;SDS011;54603;45.638;11.714;2022-09-09T17:03:54;5.00;;;4.20;;
67804;SDS011;54603;45.638;11.714;2022-09-09T17:06:20;7.50;;;4.20;;
67804;SDS011;54603;45.638;11.714;2022-09-09T17:08:46;7.10;;;3.90;;
67804;SDS011;54603;45.638;11.714;2022-09-09T17:11:16;7.10;;;4.50;;
67804;SDS011;54603;45.638;11.714;2022-09-09T17:13:44;5.20;;;4.20;;